sensor_id;sensor_type;location;lat;lon;timestamp;P1;durP1;ratioP1;P2;durP2;ratioP2
61483;SDS011;47349;55.640;37.692;2022-12-07T00:01:21;6.95;;;4.15;;
61483;SDS011;47349;55.640;37.692;2022-12-07T00:03:49;10.32;;;5.03;;
61483;SDS011;47349;55.640;37.692;2022-12-07T00:06:19;9.93;;;5.20;;
61483;SDS011;47349;55.640;37.692;2022-12-07T00:08:47;5.57;;;3.55;;
61483;SDS011;47349;55.640;37.692;2022-12-07T00:11:19;10.48;;;5.18;;
61483;SDS011;47349;55.640;37.692;2022-12-07T00:13:51;9.07;;;5.10;;
61483;SDS011;47349;55.640;37.692;2022-12-07T00:16:20;6.30;;;4.47;;
61483;SDS011;47349;55.640;37.692;2022-12-07T00:18:48;8.65;;;4.82;;
61483;SDS011;47349;55.640;37.692;2022-12-07T00:21:17;9.57;;;5.50;;
61483;SDS011;47349;55.640;37.692;2022-12-07T00:23:47;9.52;;;4.47;;
61483;SDS011;47349;55.640;37.692;2022-12-07T00:28:47;7.75;;;5.00;;
61483;SDS011;47349;55.640;37.692;2022-12-07T00:31:16;12.93;;;5.25;;
61483;SDS011;47349;55.640;37.692;2022-12-07T00:33:45;7.30;;;4.60;;
61483;SDS011;47349;55.640;37.692;2022-12-07T00:36:14;9.65;;;4.93;;
61483;SDS011;47349;55.640;37.692;2022-12-07T00:38:51;11.07;;;5.45;;
61483;SDS011;47349;55.640;37.692;2022-12-07T00:41:20;8.60;;;5.43;;
61483;SDS011;47349;55.640;37.692;2022-12-07T00:43:49;9.93;;;5.18;;
61483;SDS011;47349;55.640;37.692;2022-12-07T00:46:18;7.07;;;4.13;;
61483;SDS011;47349;55.640;37.692;2022-12-07T00:48:46;6.13;;;4.82;;
61483;SDS011;47349;55.640;37.692;2022-12-07T00:51:14;9.10;;;4.90;;
61483;SDS011;47349;55.640;37.692;2022-12-07T00:53:43;5.90;;;4.40;;
61483;SDS011;47349;55.640;37.692;2022-12-07T00:56:12;9.57;;;5.00;;
61483;SDS011;47349;55.640;37.692;2022-12-07T00:58:43;5.57;;;4.28;;
61483;SDS011;47349;55.640;37.692;2022-12-07T01:01:15;10.02;;;5.13;;
61483;SDS011;47349;55.640;37.692;2022-12-07T01:06:09;9.35;;;5.63;;
61483;SDS011;47349;55.640;37.692;2022-12-07T01:08:42;6.10;;;4.28;;
61483;SDS011;47349;55.640;37.692;2022-12-07T01:13:38;8.50;;;5.22;;
61483;SDS011;47349;55.640;37.692;2022-12-07T01:18:34;6.97;;;4.20;;
61483;SDS011;47349;55.640;37.692;2022-12-07T01:23:47;8.02;;;4.38;;
61483;SDS011;47349;55.640;37.692;2022-12-07T01:26:16;8.85;;;5.35;;
61483;SDS011;47349;55.640;37.692;2022-12-07T01:28:45;11.35;;;5.78;;
61483;SDS011;47349;55.640;37.692;2022-12-07T01:31:13;7.03;;;4.75;;
61483;SDS011;47349;55.640;37.692;2022-12-07T01:33:42;5.22;;;4.57;;
61483;SDS011;47349;55.640;37.692;2022-12-07T01:36:18;5.30;;;3.97;;
61483;SDS011;47349;55.640;37.692;2022-12-07T01:38:48;5.35;;;4.28;;
61483;SDS011;47349;55.640;37.692;2022-12-07T01:41:19;11.40;;;5.68;;
61483;SDS011;47349;55.640;37.692;2022-12-07T01:46:43;7.47;;;4.18;;
61483;SDS011;47349;55.640;37.692;2022-12-07T01:49:14;7.88;;;5.18;;
61483;SDS011;47349;55.640;37.692;2022-12-07T01:51:47;3.85;;;3.50;;
61483;SDS011;47349;55.640;37.692;2022-12-07T01:54:18;13.65;;;5.78;;
61483;SDS011;47349;55.640;37.692;2022-12-07T01:56:49;8.27;;;5.82;;
61483;SDS011;47349;55.640;37.692;2022-12-07T01:59:19;12.48;;;5.68;;
61483;SDS011;47349;55.640;37.692;2022-12-07T02:01:51;5.07;;;3.92;;
61483;SDS011;47349;55.640;37.692;2022-12-07T02:04:21;10.20;;;5.95;;
61483;SDS011;47349;55.640;37.692;2022-12-07T02:06:49;12.02;;;5.57;;
61483;SDS011;47349;55.640;37.692;2022-12-07T02:09:18;8.32;;;4.97;;
61483;SDS011;47349;55.640;37.692;2022-12-07T02:14:12;9.80;;;5.18;;
61483;SDS011;47349;55.640;37.692;2022-12-07T02:19:32;6.72;;;5.30;;
61483;SDS011;47349;55.640;37.692;2022-12-07T02:24:57;9.40;;;4.93;;
61483;SDS011;47349;55.640;37.692;2022-12-07T02:27:47;6.32;;;4.53;;
61483;SDS011;47349;55.640;37.692;2022-12-07T02:30:20;5.18;;;3.67;;
61483;SDS011;47349;55.640;37.692;2022-12-07T02:32:57;6.25;;;3.53;;
61483;SDS011;47349;55.640;37.692;2022-12-07T02:38:43;8.57;;;5.18;;
61483;SDS011;47349;55.640;37.692;2022-12-07T02:41:27;11.52;;;5.70;;
61483;SDS011;47349;55.640;37.692;2022-12-07T02:44:01;10.13;;;5.05;;
61483;SDS011;47349;55.640;37.692;2022-12-07T02:46:38;7.40;;;5.10;;
61483;SDS011;47349;55.640;37.692;2022-12-07T02:49:09;12.00;;;4.75;;
61483;SDS011;47349;55.640;37.692;2022-12-07T02:51:41;7.15;;;4.72;;
61483;SDS011;47349;55.640;37.692;2022-12-07T02:54:11;8.90;;;5.03;;
61483;SDS011;47349;55.640;37.692;2022-12-07T02:59:29;14.68;;;6.07;;
61483;SDS011;47349;55.640;37.692;2022-12-07T03:13:06;13.00;;;6.43;;
61483;SDS011;47349;55.640;37.692;2022-12-07T03:15:40;12.55;;;5.63;;
61483;SDS011;47349;55.640;37.692;2022-12-07T03:18:09;9.38;;;5.82;;
61483;SDS011;47349;55.640;37.692;2022-12-07T03:20:39;12.23;;;6.22;;
61483;SDS011;47349;55.640;37.692;2022-12-07T03:23:10;12.18;;;6.53;;
61483;SDS011;47349;55.640;37.692;2022-12-07T03:25:40;8.32;;;5.68;;
61483;SDS011;47349;55.640;37.692;2022-12-07T03:28:12;15.38;;;6.40;;
61483;SDS011;47349;55.640;37.692;2022-12-07T03:30:55;11.98;;;5.93;;
61483;SDS011;47349;55.640;37.692;2022-12-07T03:33:27;14.30;;;6.50;;
61483;SDS011;47349;55.640;37.692;2022-12-07T03:36:00;10.52;;;5.90;;
61483;SDS011;47349;55.640;37.692;2022-12-07T03:41:06;14.43;;;7.00;;
61483;SDS011;47349;55.640;37.692;2022-12-07T03:43:34;12.82;;;6.05;;
61483;SDS011;47349;55.640;37.692;2022-12-07T03:51:45;7.70;;;4.22;;
61483;SDS011;47349;55.640;37.692;2022-12-07T03:54:15;11.00;;;4.88;;
61483;SDS011;47349;55.640;37.692;2022-12-07T03:56:49;10.85;;;5.38;;
61483;SDS011;47349;55.640;37.692;2022-12-07T03:59:18;11.23;;;5.93;;
61483;SDS011;47349;55.640;37.692;2022-12-07T04:01:54;11.55;;;6.05;;
61483;SDS011;47349;55.640;37.692;2022-12-07T04:04:24;11.35;;;6.80;;
61483;SDS011;47349;55.640;37.692;2022-12-07T04:06:54;8.98;;;4.78;;
61483;SDS011;47349;55.640;37.692;2022-12-07T04:09:21;10.52;;;5.47;;
61483;SDS011;47349;55.640;37.692;2022-12-07T04:11:49;10.38;;;6.15;;
61483;SDS011;47349;55.640;37.692;2022-12-07T04:16:50;10.43;;;5.93;;
61483;SDS011;47349;55.640;37.692;2022-12-07T04:19:20;10.45;;;6.22;;
61483;SDS011;47349;55.640;37.692;2022-12-07T04:21:49;8.65;;;5.47;;
61483;SDS011;47349;55.640;37.692;2022-12-07T04:24:18;13.45;;;6.65;;
61483;SDS011;47349;55.640;37.692;2022-12-07T04:26:45;12.00;;;6.75;;
61483;SDS011;47349;55.640;37.692;2022-12-07T04:29:13;13.25;;;5.82;;
61483;SDS011;47349;55.640;37.692;2022-12-07T04:31:41;11.38;;;7.10;;
61483;SDS011;47349;55.640;37.692;2022-12-07T04:34:09;9.23;;;4.68;;
61483;SDS011;47349;55.640;37.692;2022-12-07T04:36:56;13.57;;;5.33;;
61483;SDS011;47349;55.640;37.692;2022-12-07T04:41:53;10.82;;;6.70;;
61483;SDS011;47349;55.640;37.692;2022-12-07T04:44:21;16.95;;;6.32;;
61483;SDS011;47349;55.640;37.692;2022-12-07T04:47:06;11.65;;;6.15;;
61483;SDS011;47349;55.640;37.692;2022-12-07T04:49:35;13.80;;;5.85;;
61483;SDS011;47349;55.640;37.692;2022-12-07T04:52:03;13.55;;;7.05;;
61483;SDS011;47349;55.640;37.692;2022-12-07T04:54:30;10.55;;;6.53;;
61483;SDS011;47349;55.640;37.692;2022-12-07T04:56:58;10.95;;;6.53;;
61483;SDS011;47349;55.640;37.692;2022-12-07T04:59:26;13.38;;;7.93;;
61483;SDS011;47349;55.640;37.692;2022-12-07T05:02:12;9.10;;;4.95;;
61483;SDS011;47349;55.640;37.692;2022-12-07T05:04:53;15.00;;;7.28;;
61483;SDS011;47349;55.640;37.692;2022-12-07T05:07:20;10.80;;;6.25;;
61483;SDS011;47349;55.640;37.692;2022-12-07T05:09:48;13.15;;;6.53;;
61483;SDS011;47349;55.640;37.692;2022-12-07T05:12:30;14.45;;;6.63;;
61483;SDS011;47349;55.640;37.692;2022-12-07T05:14:57;15.20;;;6.85;;
61483;SDS011;47349;55.640;37.692;2022-12-07T05:17:39;11.65;;;6.18;;
61483;SDS011;47349;55.640;37.692;2022-12-07T05:20:06;10.30;;;6.60;;
61483;SDS011;47349;55.640;37.692;2022-12-07T05:22:48;11.13;;;7.63;;
61483;SDS011;47349;55.640;37.692;2022-12-07T05:25:16;13.93;;;7.45;;
61483;SDS011;47349;55.640;37.692;2022-12-07T05:27:43;11.98;;;6.80;;
61483;SDS011;47349;55.640;37.692;2022-12-07T05:30:10;12.93;;;7.25;;
61483;SDS011;47349;55.640;37.692;2022-12-07T05:32:38;13.88;;;7.40;;
61483;SDS011;47349;55.640;37.692;2022-12-07T05:35:28;13.98;;;7.68;;
61483;SDS011;47349;55.640;37.692;2022-12-07T05:37:58;11.30;;;7.10;;
61483;SDS011;47349;55.640;37.692;2022-12-07T05:40:25;11.18;;;5.93;;
61483;SDS011;47349;55.640;37.692;2022-12-07T05:42:53;14.02;;;7.30;;
61483;SDS011;47349;55.640;37.692;2022-12-07T05:45:25;14.27;;;8.27;;
61483;SDS011;47349;55.640;37.692;2022-12-07T05:48:08;20.05;;;9.07;;
61483;SDS011;47349;55.640;37.692;2022-12-07T05:50:36;12.52;;;7.05;;
61483;SDS011;47349;55.640;37.692;2022-12-07T05:53:19;14.50;;;7.03;;
61483;SDS011;47349;55.640;37.692;2022-12-07T05:55:49;12.23;;;6.05;;
61483;SDS011;47349;55.640;37.692;2022-12-07T05:58:22;13.95;;;7.43;;
61483;SDS011;47349;55.640;37.692;2022-12-07T06:01:11;17.20;;;9.02;;
61483;SDS011;47349;55.640;37.692;2022-12-07T06:03:40;14.98;;;8.00;;
61483;SDS011;47349;55.640;37.692;2022-12-07T06:06:07;14.75;;;8.80;;
61483;SDS011;47349;55.640;37.692;2022-12-07T06:08:35;19.13;;;9.73;;
61483;SDS011;47349;55.640;37.692;2022-12-07T06:11:21;17.85;;;8.70;;
61483;SDS011;47349;55.640;37.692;2022-12-07T06:14:06;17.38;;;8.75;;
61483;SDS011;47349;55.640;37.692;2022-12-07T06:16:33;17.73;;;9.35;;
61483;SDS011;47349;55.640;37.692;2022-12-07T06:19:02;16.67;;;6.20;;
61483;SDS011;47349;55.640;37.692;2022-12-07T06:21:33;12.45;;;8.43;;
61483;SDS011;47349;55.640;37.692;2022-12-07T06:24:15;11.73;;;6.47;;
61483;SDS011;47349;55.640;37.692;2022-12-07T06:26:44;15.10;;;9.25;;
61483;SDS011;47349;55.640;37.692;2022-12-07T06:29:13;19.13;;;9.07;;
61483;SDS011;47349;55.640;37.692;2022-12-07T06:31:41;17.92;;;9.73;;
61483;SDS011;47349;55.640;37.692;2022-12-07T06:34:09;12.93;;;6.53;;
61483;SDS011;47349;55.640;37.692;2022-12-07T06:36:38;13.55;;;7.53;;
61483;SDS011;47349;55.640;37.692;2022-12-07T06:39:06;12.88;;;8.10;;
61483;SDS011;47349;55.640;37.692;2022-12-07T06:41:38;17.15;;;9.48;;
61483;SDS011;47349;55.640;37.692;2022-12-07T06:44:20;15.05;;;8.20;;
61483;SDS011;47349;55.640;37.692;2022-12-07T06:46:48;14.75;;;7.72;;
61483;SDS011;47349;55.640;37.692;2022-12-07T06:49:16;15.48;;;8.27;;
61483;SDS011;47349;55.640;37.692;2022-12-07T06:51:44;13.02;;;7.82;;
61483;SDS011;47349;55.640;37.692;2022-12-07T06:56:39;18.35;;;9.30;;
61483;SDS011;47349;55.640;37.692;2022-12-07T06:59:08;17.33;;;8.20;;
61483;SDS011;47349;55.640;37.692;2022-12-07T07:01:36;11.05;;;6.88;;
61483;SDS011;47349;55.640;37.692;2022-12-07T07:04:04;10.80;;;5.90;;
61483;SDS011;47349;55.640;37.692;2022-12-07T07:06:31;14.10;;;9.13;;
61483;SDS011;47349;55.640;37.692;2022-12-07T07:08:58;20.55;;;8.93;;
61483;SDS011;47349;55.640;37.692;2022-12-07T07:11:26;15.23;;;9.40;;
61483;SDS011;47349;55.640;37.692;2022-12-07T07:13:54;14.40;;;8.27;;
61483;SDS011;47349;55.640;37.692;2022-12-07T07:16:23;17.48;;;8.98;;
61483;SDS011;47349;55.640;37.692;2022-12-07T07:18:51;14.82;;;8.85;;
61483;SDS011;47349;55.640;37.692;2022-12-07T07:21:18;13.88;;;8.02;;
61483;SDS011;47349;55.640;37.692;2022-12-07T07:23:45;17.10;;;9.27;;
61483;SDS011;47349;55.640;37.692;2022-12-07T07:26:13;13.50;;;6.30;;
61483;SDS011;47349;55.640;37.692;2022-12-07T07:28:46;14.60;;;7.63;;
61483;SDS011;47349;55.640;37.692;2022-12-07T07:33:41;15.18;;;8.13;;
61483;SDS011;47349;55.640;37.692;2022-12-07T07:36:08;16.00;;;8.60;;
61483;SDS011;47349;55.640;37.692;2022-12-07T07:38:35;25.67;;;9.82;;
61483;SDS011;47349;55.640;37.692;2022-12-07T07:41:06;16.23;;;8.48;;
61483;SDS011;47349;55.640;37.692;2022-12-07T07:46:00;16.10;;;8.32;;
61483;SDS011;47349;55.640;37.692;2022-12-07T07:48:28;20.55;;;10.38;;
61483;SDS011;47349;55.640;37.692;2022-12-07T07:50:55;23.67;;;9.07;;
61483;SDS011;47349;55.640;37.692;2022-12-07T07:53:22;17.60;;;9.93;;
61483;SDS011;47349;55.640;37.692;2022-12-07T07:58:17;17.90;;;9.65;;
61483;SDS011;47349;55.640;37.692;2022-12-07T08:00:44;16.17;;;8.98;;
61483;SDS011;47349;55.640;37.692;2022-12-07T08:03:12;20.50;;;8.95;;
61483;SDS011;47349;55.640;37.692;2022-12-07T08:08:06;22.38;;;10.00;;
61483;SDS011;47349;55.640;37.692;2022-12-07T08:10:34;14.73;;;8.05;;
61483;SDS011;47349;55.640;37.692;2022-12-07T08:13:02;19.15;;;10.10;;
61483;SDS011;47349;55.640;37.692;2022-12-07T08:15:41;13.07;;;7.03;;
61483;SDS011;47349;55.640;37.692;2022-12-07T08:18:10;13.88;;;7.50;;
61483;SDS011;47349;55.640;37.692;2022-12-07T08:20:38;18.13;;;9.18;;
61483;SDS011;47349;55.640;37.692;2022-12-07T08:23:06;12.40;;;6.38;;
61483;SDS011;47349;55.640;37.692;2022-12-07T08:25:39;18.38;;;9.40;;
61483;SDS011;47349;55.640;37.692;2022-12-07T08:28:06;16.60;;;8.93;;
61483;SDS011;47349;55.640;37.692;2022-12-07T08:30:34;14.77;;;7.25;;
61483;SDS011;47349;55.640;37.692;2022-12-07T08:33:02;10.50;;;6.32;;
61483;SDS011;47349;55.640;37.692;2022-12-07T08:35:43;17.45;;;9.18;;
61483;SDS011;47349;55.640;37.692;2022-12-07T08:38:10;15.48;;;8.43;;
61483;SDS011;47349;55.640;37.692;2022-12-07T08:40:37;16.25;;;9.13;;
61483;SDS011;47349;55.640;37.692;2022-12-07T08:43:04;16.58;;;7.63;;
61483;SDS011;47349;55.640;37.692;2022-12-07T08:45:46;13.75;;;7.63;;
61483;SDS011;47349;55.640;37.692;2022-12-07T08:48:24;9.02;;;5.72;;
61483;SDS011;47349;55.640;37.692;2022-12-07T08:50:52;12.32;;;6.45;;
61483;SDS011;47349;55.640;37.692;2022-12-07T08:55:47;9.18;;;5.50;;
61483;SDS011;47349;55.640;37.692;2022-12-07T08:58:15;15.52;;;7.78;;
61483;SDS011;47349;55.640;37.692;2022-12-07T09:00:56;13.85;;;6.07;;
61483;SDS011;47349;55.640;37.692;2022-12-07T09:05:53;11.10;;;5.68;;
61483;SDS011;47349;55.640;37.692;2022-12-07T09:08:22;12.40;;;7.22;;
61483;SDS011;47349;55.640;37.692;2022-12-07T09:10:54;14.05;;;7.03;;
61483;SDS011;47349;55.640;37.692;2022-12-07T09:13:21;17.58;;;7.85;;
61483;SDS011;47349;55.640;37.692;2022-12-07T09:15:49;14.30;;;7.95;;
61483;SDS011;47349;55.640;37.692;2022-12-07T09:18:16;14.75;;;8.40;;
61483;SDS011;47349;55.640;37.692;2022-12-07T09:20:43;11.10;;;6.10;;
61483;SDS011;47349;55.640;37.692;2022-12-07T09:23:11;15.15;;;8.27;;
61483;SDS011;47349;55.640;37.692;2022-12-07T09:25:39;11.65;;;6.85;;
61483;SDS011;47349;55.640;37.692;2022-12-07T09:28:06;14.55;;;8.63;;
61483;SDS011;47349;55.640;37.692;2022-12-07T09:30:33;20.98;;;7.70;;
61483;SDS011;47349;55.640;37.692;2022-12-07T09:33:21;10.95;;;6.10;;
61483;SDS011;47349;55.640;37.692;2022-12-07T09:35:49;16.75;;;7.20;;
61483;SDS011;47349;55.640;37.692;2022-12-07T09:38:18;13.95;;;6.57;;
61483;SDS011;47349;55.640;37.692;2022-12-07T09:40:49;14.02;;;6.70;;
61483;SDS011;47349;55.640;37.692;2022-12-07T09:43:18;14.07;;;6.97;;
61483;SDS011;47349;55.640;37.692;2022-12-07T09:45:49;11.52;;;7.20;;
61483;SDS011;47349;55.640;37.692;2022-12-07T09:48:21;9.48;;;6.00;;
61483;SDS011;47349;55.640;37.692;2022-12-07T09:50:57;11.43;;;6.88;;
61483;SDS011;47349;55.640;37.692;2022-12-07T09:53:36;15.88;;;5.10;;
61483;SDS011;47349;55.640;37.692;2022-12-07T09:56:05;9.02;;;6.00;;
61483;SDS011;47349;55.640;37.692;2022-12-07T09:58:33;10.77;;;6.68;;
61483;SDS011;47349;55.640;37.692;2022-12-07T10:03:38;10.50;;;5.95;;
61483;SDS011;47349;55.640;37.692;2022-12-07T10:06:06;16.33;;;6.90;;
61483;SDS011;47349;55.640;37.692;2022-12-07T10:08:34;14.13;;;6.80;;
61483;SDS011;47349;55.640;37.692;2022-12-07T10:11:01;13.23;;;6.65;;
61483;SDS011;47349;55.640;37.692;2022-12-07T10:13:38;12.80;;;6.63;;
61483;SDS011;47349;55.640;37.692;2022-12-07T10:16:06;10.65;;;5.80;;
61483;SDS011;47349;55.640;37.692;2022-12-07T10:18:51;10.05;;;5.57;;
61483;SDS011;47349;55.640;37.692;2022-12-07T10:26:38;13.68;;;6.20;;
61483;SDS011;47349;55.640;37.692;2022-12-07T10:29:14;13.23;;;7.20;;
61483;SDS011;47349;55.640;37.692;2022-12-07T10:32:06;12.18;;;7.30;;
61483;SDS011;47349;55.640;37.692;2022-12-07T10:38:14;13.15;;;7.07;;
61483;SDS011;47349;55.640;37.692;2022-12-07T10:40:43;8.25;;;5.40;;
61483;SDS011;47349;55.640;37.692;2022-12-07T10:54:10;13.38;;;6.38;;
61483;SDS011;47349;55.640;37.692;2022-12-07T10:56:53;17.20;;;7.30;;
61483;SDS011;47349;55.640;37.692;2022-12-07T11:08:00;11.00;;;7.03;;
61483;SDS011;47349;55.640;37.692;2022-12-07T11:11:05;17.95;;;8.27;;
61483;SDS011;47349;55.640;37.692;2022-12-07T11:13:30;10.85;;;6.07;;
61483;SDS011;47349;55.640;37.692;2022-12-07T11:16:27;10.25;;;6.25;;
61483;SDS011;47349;55.640;37.692;2022-12-07T11:24:49;15.52;;;7.40;;
61483;SDS011;47349;55.640;37.692;2022-12-07T11:32:51;13.00;;;6.38;;
61483;SDS011;47349;55.640;37.692;2022-12-07T11:38:15;12.77;;;7.15;;
61483;SDS011;47349;55.640;37.692;2022-12-07T11:40:51;14.27;;;6.65;;
61483;SDS011;47349;55.640;37.692;2022-12-07T11:43:27;14.95;;;7.93;;
61483;SDS011;47349;55.640;37.692;2022-12-07T11:46:12;11.90;;;7.63;;
61483;SDS011;47349;55.640;37.692;2022-12-07T11:48:55;13.50;;;6.45;;
61483;SDS011;47349;55.640;37.692;2022-12-07T11:51:45;14.27;;;7.68;;
61483;SDS011;47349;55.640;37.692;2022-12-07T11:54:23;12.02;;;6.80;;
61483;SDS011;47349;55.640;37.692;2022-12-07T11:57:04;21.60;;;8.10;;
61483;SDS011;47349;55.640;37.692;2022-12-07T11:59:59;12.85;;;7.13;;
61483;SDS011;47349;55.640;37.692;2022-12-07T12:02:38;17.90;;;9.05;;
61483;SDS011;47349;55.640;37.692;2022-12-07T12:07:43;16.05;;;8.40;;
61483;SDS011;47349;55.640;37.692;2022-12-07T12:13:47;19.33;;;7.60;;
61483;SDS011;47349;55.640;37.692;2022-12-07T12:17:13;12.18;;;6.60;;
61483;SDS011;47349;55.640;37.692;2022-12-07T12:23:09;19.23;;;6.53;;
61483;SDS011;47349;55.640;37.692;2022-12-07T12:28:37;17.17;;;8.10;;
61483;SDS011;47349;55.640;37.692;2022-12-07T12:33:55;19.45;;;8.90;;
61483;SDS011;47349;55.640;37.692;2022-12-07T12:36:25;14.88;;;7.07;;
61483;SDS011;47349;55.640;37.692;2022-12-07T12:47:01;13.20;;;8.25;;
61483;SDS011;47349;55.640;37.692;2022-12-07T12:54:35;10.55;;;5.90;;
61483;SDS011;47349;55.640;37.692;2022-12-07T13:10:30;14.98;;;8.30;;
61483;SDS011;47349;55.640;37.692;2022-12-07T13:29:12;14.88;;;7.93;;
61483;SDS011;47349;55.640;37.692;2022-12-07T13:31:47;14.52;;;7.70;;
61483;SDS011;47349;55.640;37.692;2022-12-07T13:34:34;20.42;;;9.95;;
61483;SDS011;47349;55.640;37.692;2022-12-07T13:37:14;21.98;;;10.27;;
61483;SDS011;47349;55.640;37.692;2022-12-07T13:39:46;22.58;;;10.68;;
61483;SDS011;47349;55.640;37.692;2022-12-07T13:42:34;18.38;;;9.75;;
61483;SDS011;47349;55.640;37.692;2022-12-07T13:47:54;12.07;;;6.97;;
61483;SDS011;47349;55.640;37.692;2022-12-07T13:50:26;21.80;;;9.88;;
61483;SDS011;47349;55.640;37.692;2022-12-07T13:52:55;11.13;;;6.50;;
61483;SDS011;47349;55.640;37.692;2022-12-07T13:55:24;16.42;;;8.88;;
61483;SDS011;47349;55.640;37.692;2022-12-07T13:57:53;19.25;;;9.30;;
61483;SDS011;47349;55.640;37.692;2022-12-07T14:00:25;18.02;;;7.43;;
61483;SDS011;47349;55.640;37.692;2022-12-07T14:03:31;18.77;;;9.20;;
61483;SDS011;47349;55.640;37.692;2022-12-07T14:06:10;19.67;;;9.52;;
61483;SDS011;47349;55.640;37.692;2022-12-07T14:08:40;15.45;;;7.30;;
61483;SDS011;47349;55.640;37.692;2022-12-07T14:11:09;9.98;;;6.72;;
61483;SDS011;47349;55.640;37.692;2022-12-07T14:16:30;12.02;;;8.40;;
61483;SDS011;47349;55.640;37.692;2022-12-07T14:18:59;13.35;;;8.13;;
61483;SDS011;47349;55.640;37.692;2022-12-07T14:21:43;23.45;;;9.98;;
61483;SDS011;47349;55.640;37.692;2022-12-07T14:24:20;17.45;;;9.13;;
61483;SDS011;47349;55.640;37.692;2022-12-07T14:27:05;15.15;;;7.80;;
61483;SDS011;47349;55.640;37.692;2022-12-07T14:29:47;14.32;;;7.93;;
61483;SDS011;47349;55.640;37.692;2022-12-07T14:32:24;18.80;;;10.27;;
61483;SDS011;47349;55.640;37.692;2022-12-07T14:35:12;24.80;;;9.93;;
61483;SDS011;47349;55.640;37.692;2022-12-07T14:37:43;16.77;;;8.45;;
61483;SDS011;47349;55.640;37.692;2022-12-07T14:40:14;16.55;;;7.72;;
61483;SDS011;47349;55.640;37.692;2022-12-07T14:42:43;23.60;;;10.85;;
61483;SDS011;47349;55.640;37.692;2022-12-07T14:45:14;14.23;;;7.88;;
61483;SDS011;47349;55.640;37.692;2022-12-07T14:47:44;16.48;;;8.55;;
61483;SDS011;47349;55.640;37.692;2022-12-07T14:50:33;16.70;;;8.77;;
61483;SDS011;47349;55.640;37.692;2022-12-07T14:53:23;15.43;;;7.93;;
61483;SDS011;47349;55.640;37.692;2022-12-07T14:56:10;17.88;;;8.07;;
61483;SDS011;47349;55.640;37.692;2022-12-07T14:58:37;17.55;;;10.55;;
61483;SDS011;47349;55.640;37.692;2022-12-07T15:01:04;19.38;;;9.65;;
61483;SDS011;47349;55.640;37.692;2022-12-07T15:03:40;13.00;;;6.88;;
61483;SDS011;47349;55.640;37.692;2022-12-07T15:06:07;19.20;;;9.43;;
61483;SDS011;47349;55.640;37.692;2022-12-07T15:08:40;19.55;;;10.07;;
61483;SDS011;47349;55.640;37.692;2022-12-07T15:11:10;21.85;;;9.00;;
61483;SDS011;47349;55.640;37.692;2022-12-07T15:13:42;17.38;;;10.00;;
61483;SDS011;47349;55.640;37.692;2022-12-07T15:16:28;22.70;;;9.85;;
61483;SDS011;47349;55.640;37.692;2022-12-07T15:19:13;12.85;;;7.90;;
61483;SDS011;47349;55.640;37.692;2022-12-07T15:21:56;13.80;;;7.93;;
61483;SDS011;47349;55.640;37.692;2022-12-07T15:24:28;22.95;;;11.80;;
61483;SDS011;47349;55.640;37.692;2022-12-07T15:26:56;15.20;;;7.80;;
61483;SDS011;47349;55.640;37.692;2022-12-07T15:29:23;22.90;;;11.30;;
61483;SDS011;47349;55.640;37.692;2022-12-07T15:34:25;16.13;;;8.40;;
61483;SDS011;47349;55.640;37.692;2022-12-07T15:37:06;14.43;;;7.82;;
61483;SDS011;47349;55.640;37.692;2022-12-07T15:39:36;19.67;;;10.38;;
61483;SDS011;47349;55.640;37.692;2022-12-07T15:42:41;21.08;;;11.32;;
61483;SDS011;47349;55.640;37.692;2022-12-07T15:48:05;14.77;;;7.18;;
61483;SDS011;47349;55.640;37.692;2022-12-07T15:50:53;21.00;;;9.50;;
61483;SDS011;47349;55.640;37.692;2022-12-07T15:53:34;17.23;;;8.38;;
61483;SDS011;47349;55.640;37.692;2022-12-07T15:56:07;17.42;;;8.30;;
61483;SDS011;47349;55.640;37.692;2022-12-07T15:58:52;17.83;;;9.07;;
61483;SDS011;47349;55.640;37.692;2022-12-07T16:01:33;18.60;;;9.27;;
61483;SDS011;47349;55.640;37.692;2022-12-07T16:04:02;19.08;;;8.75;;
61483;SDS011;47349;55.640;37.692;2022-12-07T16:06:30;25.17;;;9.80;;
61483;SDS011;47349;55.640;37.692;2022-12-07T16:12:09;20.05;;;9.85;;
61483;SDS011;47349;55.640;37.692;2022-12-07T16:14:39;19.30;;;9.18;;
61483;SDS011;47349;55.640;37.692;2022-12-07T16:17:25;19.15;;;10.80;;
61483;SDS011;47349;55.640;37.692;2022-12-07T16:22:23;11.10;;;7.07;;
61483;SDS011;47349;55.640;37.692;2022-12-07T16:25:04;18.33;;;10.32;;
61483;SDS011;47349;55.640;37.692;2022-12-07T16:27:34;16.45;;;9.15;;
61483;SDS011;47349;55.640;37.692;2022-12-07T16:30:11;18.58;;;8.65;;
61483;SDS011;47349;55.640;37.692;2022-12-07T16:32:39;18.05;;;9.73;;
61483;SDS011;47349;55.640;37.692;2022-12-07T16:35:22;15.55;;;8.13;;
61483;SDS011;47349;55.640;37.692;2022-12-07T16:37:49;19.45;;;10.30;;
61483;SDS011;47349;55.640;37.692;2022-12-07T16:40:30;13.80;;;7.47;;
61483;SDS011;47349;55.640;37.692;2022-12-07T16:42:58;14.07;;;8.23;;
61483;SDS011;47349;55.640;37.692;2022-12-07T16:45:28;12.27;;;7.35;;
61483;SDS011;47349;55.640;37.692;2022-12-07T16:47:55;15.50;;;8.05;;
61483;SDS011;47349;55.640;37.692;2022-12-07T16:50:23;16.83;;;8.27;;
61483;SDS011;47349;55.640;37.692;2022-12-07T16:53:16;22.02;;;10.77;;
61483;SDS011;47349;55.640;37.692;2022-12-07T16:55:51;22.17;;;10.05;;
61483;SDS011;47349;55.640;37.692;2022-12-07T16:58:35;21.95;;;10.05;;
61483;SDS011;47349;55.640;37.692;2022-12-07T17:01:17;24.02;;;9.07;;
61483;SDS011;47349;55.640;37.692;2022-12-07T17:03:48;17.50;;;8.27;;
61483;SDS011;47349;55.640;37.692;2022-12-07T17:06:32;20.00;;;10.07;;
61483;SDS011;47349;55.640;37.692;2022-12-07T17:09:08;18.30;;;8.05;;
61483;SDS011;47349;55.640;37.692;2022-12-07T17:11:43;18.98;;;9.35;;
61483;SDS011;47349;55.640;37.692;2022-12-07T17:14:26;13.02;;;7.80;;
61483;SDS011;47349;55.640;37.692;2022-12-07T17:17:16;20.63;;;9.32;;
61483;SDS011;47349;55.640;37.692;2022-12-07T17:19:44;12.00;;;6.63;;
61483;SDS011;47349;55.640;37.692;2022-12-07T17:22:11;18.20;;;8.80;;
61483;SDS011;47349;55.640;37.692;2022-12-07T17:24:39;19.02;;;8.20;;
61483;SDS011;47349;55.640;37.692;2022-12-07T17:27:06;17.83;;;9.35;;
61483;SDS011;47349;55.640;37.692;2022-12-07T17:29:34;18.77;;;7.53;;
61483;SDS011;47349;55.640;37.692;2022-12-07T17:32:04;17.15;;;8.35;;
61483;SDS011;47349;55.640;37.692;2022-12-07T17:34:45;16.10;;;7.45;;
61483;SDS011;47349;55.640;37.692;2022-12-07T17:39:48;15.88;;;8.07;;
61483;SDS011;47349;55.640;37.692;2022-12-07T17:42:16;12.45;;;7.57;;
61483;SDS011;47349;55.640;37.692;2022-12-07T17:45:03;7.88;;;5.63;;
61483;SDS011;47349;55.640;37.692;2022-12-07T17:47:32;13.73;;;7.05;;
61483;SDS011;47349;55.640;37.692;2022-12-07T17:50:00;15.18;;;8.10;;
61483;SDS011;47349;55.640;37.692;2022-12-07T17:52:33;18.98;;;9.07;;
61483;SDS011;47349;55.640;37.692;2022-12-07T17:55:19;14.95;;;8.52;;
61483;SDS011;47349;55.640;37.692;2022-12-07T17:57:47;12.95;;;7.30;;
61483;SDS011;47349;55.640;37.692;2022-12-07T18:00:29;18.92;;;8.77;;
61483;SDS011;47349;55.640;37.692;2022-12-07T18:02:56;16.60;;;7.68;;
61483;SDS011;47349;55.640;37.692;2022-12-07T18:05:24;19.83;;;9.02;;
61483;SDS011;47349;55.640;37.692;2022-12-07T18:07:54;14.70;;;6.32;;
61483;SDS011;47349;55.640;37.692;2022-12-07T18:10:22;11.95;;;7.43;;